createdAt,value
2019-03-31T00:02:06.575Z,7.71
2019-03-31T00:04:34.988Z,7.62
2019-03-31T00:07:03.403Z,7.42
2019-03-31T00:09:31.821Z,7.32
2019-03-31T00:12:00.268Z,7.34
2019-03-31T00:14:28.731Z,7.17
2019-03-31T00:16:57.137Z,7.13
2019-03-31T00:19:25.539Z,7.18
2019-03-31T00:21:53.935Z,7.25
2019-03-31T00:24:22.326Z,7.22
2019-03-31T00:26:50.732Z,7.19
2019-03-31T00:29:19.204Z,7.24
2019-03-31T00:31:47.671Z,7.29
2019-03-31T00:34:16.307Z,7.27
2019-03-31T00:36:44.705Z,7.30
2019-03-31T00:39:13.103Z,6.98
2019-03-31T00:41:41.523Z,7.36
2019-03-31T00:44:10.046Z,7.37
2019-03-31T00:46:38.431Z,7.35
2019-03-31T00:49:06.968Z,7.28
2019-03-31T00:51:35.378Z,7.32
2019-03-31T00:54:03.898Z,7.27
2019-03-31T00:56:33.924Z,7.24
2019-03-31T00:59:02.378Z,7.16
2019-03-31T01:01:38.467Z,7.06
2019-03-31T01:04:07.462Z,7.01
2019-03-31T01:06:36.872Z,6.98
2019-03-31T01:09:09.935Z,6.95
2019-03-31T01:11:38.397Z,6.97
2019-03-31T01:14:06.857Z,6.93
2019-03-31T01:16:35.263Z,6.88
2019-03-31T01:19:04.135Z,6.79
2019-03-31T01:21:32.614Z,6.66
2019-03-31T01:24:01.005Z,6.54
2019-03-31T01:26:29.834Z,6.46
2019-03-31T01:28:58.457Z,6.49
2019-03-31T01:31:28.442Z,6.53
2019-03-31T01:33:57.062Z,6.60
2019-03-31T01:36:25.740Z,6.60
2019-03-31T01:38:54.127Z,6.63
2019-03-31T01:41:22.656Z,6.63
2019-03-31T01:43:51.139Z,6.61
2019-03-31T01:46:21.650Z,6.58
2019-03-31T01:48:50.210Z,6.33
2019-03-31T01:51:18.595Z,6.13
2019-03-31T01:53:47.027Z,6.00
2019-03-31T01:56:15.489Z,5.92
2019-03-31T01:58:43.931Z,5.85
2019-03-31T02:01:14.035Z,5.84
2019-03-31T02:03:42.598Z,5.92
2019-03-31T02:06:10.982Z,5.86
2019-03-31T02:08:39.425Z,5.78
2019-03-31T02:11:07.818Z,5.83
2019-03-31T02:13:36.219Z,5.88
2019-03-31T02:16:04.693Z,5.93
2019-03-31T02:18:33.115Z,5.90
2019-03-31T02:21:01.850Z,6.04
2019-03-31T02:23:30.309Z,6.05
2019-03-31T02:25:58.714Z,6.02
2019-03-31T02:28:27.151Z,5.88
2019-03-31T02:30:55.600Z,5.81
2019-03-31T02:33:23.995Z,5.35
2019-03-31T02:35:52.386Z,5.80
2019-03-31T02:38:20.816Z,5.85
2019-03-31T02:40:49.218Z,5.90
2019-03-31T02:43:17.683Z,5.93
2019-03-31T02:45:46.093Z,5.95
2019-03-31T02:48:14.473Z,5.89
2019-03-31T02:50:47.959Z,5.89
2019-03-31T02:53:17.947Z,5.80
2019-03-31T02:55:46.888Z,5.79
2019-03-31T02:58:16.026Z,5.71
2019-03-31T03:00:45.133Z,5.73
2019-03-31T03:03:15.687Z,5.32
2019-03-31T03:05:45.374Z,5.62
2019-03-31T03:08:14.498Z,5.53
2019-03-31T03:10:44.403Z,5.52
2019-03-31T03:13:14.342Z,5.42
2019-03-31T03:15:51.699Z,5.33
2019-03-31T03:18:20.148Z,5.20
2019-03-31T03:20:48.598Z,4.99
2019-03-31T03:23:17.065Z,4.89
2019-03-31T03:25:55.795Z,4.90
2019-03-31T03:28:15.574Z,5.00
2019-03-31T03:30:44.173Z,5.07
2019-03-31T03:33:16.292Z,5.09
2019-03-31T03:35:42.710Z,5.22
2019-03-31T03:38:11.103Z,5.29
2019-03-31T03:40:39.508Z,5.35
2019-03-31T03:43:07.896Z,4.98
2019-03-31T03:45:36.309Z,5.32
2019-03-31T03:48:04.856Z,5.38
2019-03-31T03:50:33.252Z,5.38
2019-03-31T03:53:01.652Z,5.26
2019-03-31T03:55:30.117Z,5.08
2019-03-31T03:57:58.734Z,5.06
2019-03-31T04:00:27.125Z,5.10
2019-03-31T04:02:55.522Z,5.11
2019-03-31T04:05:23.909Z,5.13
2019-03-31T04:07:52.441Z,5.17
2019-03-31T04:10:43.110Z,5.17
2019-03-31T04:13:11.755Z,5.11
2019-03-31T04:15:40.195Z,5.09
2019-03-31T04:18:08.696Z,5.05
2019-03-31T04:20:39.335Z,5.06
2019-03-31T04:23:07.237Z,5.02
2019-03-31T04:25:35.814Z,5.03
2019-03-31T04:28:04.237Z,4.95
2019-03-31T04:30:32.618Z,4.89
2019-03-31T04:33:01.023Z,4.80
2019-03-31T04:35:29.428Z,4.82
2019-03-31T04:37:57.839Z,4.86
2019-03-31T04:40:26.304Z,4.83
2019-03-31T04:42:54.727Z,4.69
2019-03-31T04:45:23.183Z,4.66
2019-03-31T04:47:51.603Z,4.68
2019-03-31T04:50:20.062Z,4.70
2019-03-31T04:52:48.481Z,4.76
2019-03-31T04:55:16.871Z,4.51
2019-03-31T04:57:45.262Z,4.44
2019-03-31T05:03:35.358Z,4.03
2019-03-31T05:06:03.820Z,4.03
2019-03-31T05:08:32.236Z,4.16
2019-03-31T05:11:00.622Z,4.38
2019-03-31T05:13:29.034Z,4.55
2019-03-31T05:15:57.506Z,4.67
2019-03-31T05:18:25.950Z,4.80
2019-03-31T05:20:54.450Z,4.90
2019-03-31T05:23:22.842Z,4.93
2019-03-31T05:25:51.318Z,4.84
2019-03-31T05:28:19.795Z,4.91
2019-03-31T05:30:48.183Z,4.98
2019-03-31T05:33:16.581Z,5.02
2019-03-31T05:35:45.065Z,5.06
2019-03-31T05:38:13.460Z,5.13
2019-03-31T05:40:42.022Z,5.13
2019-03-31T05:43:10.398Z,5.17
2019-03-31T05:45:38.843Z,5.23
2019-03-31T05:48:07.228Z,5.34
2019-03-31T05:50:35.723Z,5.42
2019-03-31T05:53:04.188Z,5.49
2019-03-31T05:55:32.606Z,5.51
2019-03-31T05:58:01.198Z,5.53
2019-03-31T06:00:36.200Z,5.43
2019-03-31T06:03:04.727Z,5.43
2019-03-31T06:05:33.276Z,5.31
2019-03-31T06:08:01.677Z,5.19
2019-03-31T06:10:30.154Z,5.03
2019-03-31T06:12:58.716Z,4.86
2019-03-31T06:15:27.246Z,4.76
2019-03-31T06:17:55.823Z,4.79
2019-03-31T06:20:24.292Z,4.94
2019-03-31T06:22:52.696Z,5.18
2019-03-31T06:25:21.197Z,5.37
2019-03-31T06:27:49.584Z,5.51
2019-03-31T06:30:18.510Z,5.86
2019-03-31T06:32:46.935Z,6.18
2019-03-31T06:35:15.333Z,6.49
2019-03-31T06:37:43.741Z,6.87
2019-03-31T06:40:12.225Z,7.21
2019-03-31T06:42:40.745Z,7.69
2019-03-31T06:45:09.484Z,8.41
2019-03-31T06:47:37.980Z,9.10
2019-03-31T06:50:07.523Z,9.92
2019-03-31T06:52:36.015Z,10.95
2019-03-31T06:55:08.368Z,11.72
2019-03-31T06:57:36.802Z,12.81
2019-03-31T07:00:07.729Z,13.64
2019-03-31T07:02:36.183Z,14.37
2019-03-31T07:05:07.727Z,15.10
2019-03-31T07:07:36.433Z,15.45
2019-03-31T07:10:06.711Z,16.18
2019-03-31T07:12:35.138Z,16.41
2019-03-31T07:15:05.681Z,16.82
2019-03-31T07:17:34.157Z,17.55
2019-03-31T07:20:02.637Z,18.15
2019-03-31T07:22:31.123Z,18.75
2019-03-31T07:24:59.601Z,18.80
2019-03-31T07:27:28.103Z,19.25
2019-03-31T07:29:56.476Z,19.28
2019-03-31T07:32:24.876Z,19.54
2019-03-31T07:34:53.295Z,19.70
2019-03-31T07:37:21.713Z,20.43
2019-03-31T07:39:50.455Z,20.58
2019-03-31T07:42:18.984Z,20.84
2019-03-31T07:44:47.426Z,21.01
2019-03-31T07:47:15.890Z,20.81
2019-03-31T07:49:44.345Z,20.83
2019-03-31T07:52:12.729Z,21.64
2019-03-31T07:54:41.218Z,21.88
2019-03-31T07:57:09.667Z,22.25
2019-03-31T07:59:38.106Z,22.82
2019-03-31T08:02:06.827Z,23.70
2019-03-31T08:04:35.270Z,23.56
2019-03-31T08:07:03.705Z,22.37
2019-03-31T08:09:32.140Z,23.39
2019-03-31T08:12:00.646Z,24.40
2019-03-31T08:14:31.222Z,24.16
2019-03-31T08:16:59.304Z,24.43
2019-03-31T08:19:27.811Z,24.62
2019-03-31T08:21:56.429Z,25.95
2019-03-31T08:24:24.912Z,26.14
2019-03-31T08:26:53.397Z,25.28
2019-03-31T08:29:21.796Z,25.05
2019-03-31T08:31:50.219Z,25.74
2019-03-31T08:34:18.894Z,26.12
2019-03-31T08:36:47.339Z,27.00
2019-03-31T08:39:15.760Z,26.80
2019-03-31T08:41:44.169Z,27.74
2019-03-31T08:44:12.575Z,27.00
2019-03-31T08:46:40.987Z,27.66
2019-03-31T08:49:09.573Z,28.28
2019-03-31T08:51:38.050Z,28.58
2019-03-31T08:54:06.469Z,28.59
2019-03-31T08:56:34.890Z,29.46
2019-03-31T08:59:03.326Z,29.73
2019-03-31T09:01:31.828Z,29.59
2019-03-31T09:04:00.251Z,29.92
2019-03-31T09:06:28.683Z,29.87
2019-03-31T09:08:57.173Z,29.35
2019-03-31T09:11:25.750Z,30.03
2019-03-31T09:13:54.157Z,29.59
2019-03-31T09:16:22.782Z,29.22
2019-03-31T09:18:51.311Z,29.52
2019-03-31T09:21:21.922Z,30.43
2019-03-31T09:23:50.508Z,30.24
2019-03-31T09:26:18.990Z,30.71
2019-03-31T09:28:47.576Z,30.73
2019-03-31T09:31:16.372Z,29.89
2019-03-31T09:33:44.875Z,28.82
2019-03-31T09:36:16.617Z,28.77
2019-03-31T09:38:43.630Z,28.95
2019-03-31T09:41:12.050Z,29.56
2019-03-31T09:43:40.731Z,29.76
2019-03-31T09:46:09.155Z,29.51
2019-03-31T09:48:37.679Z,30.28
2019-03-31T09:51:06.296Z,30.38
2019-03-31T09:53:34.736Z,31.18
2019-03-31T09:56:03.209Z,31.87
2019-03-31T09:58:31.659Z,31.25
2019-03-31T10:01:00.073Z,31.89
2019-03-31T10:03:28.611Z,31.61
2019-03-31T10:06:09.935Z,32.48
2019-03-31T10:08:27.521Z,30.69
2019-03-31T10:10:55.994Z,30.58
2019-03-31T10:13:24.444Z,29.77
2019-03-31T10:15:52.923Z,30.20
2019-03-31T10:18:21.378Z,31.63
2019-03-31T10:20:49.983Z,32.41
2019-03-31T10:23:18.504Z,32.34
2019-03-31T10:25:46.972Z,33.18
2019-03-31T10:28:15.411Z,33.67
2019-03-31T10:30:44.175Z,33.66
2019-03-31T10:33:12.598Z,30.95
2019-03-31T10:35:41.001Z,31.65
2019-03-31T10:38:09.683Z,31.85
2019-03-31T10:40:38.266Z,31.26
2019-03-31T10:43:06.862Z,31.16
2019-03-31T10:45:35.312Z,32.70
2019-03-31T10:48:03.915Z,34.10
2019-03-31T10:50:32.366Z,34.89
2019-03-31T10:53:00.835Z,35.90
2019-03-31T10:55:29.251Z,35.70
2019-03-31T10:57:57.666Z,35.80
2019-03-31T11:00:37.076Z,35.65
2019-03-31T11:03:08.053Z,35.74
2019-03-31T11:05:37.106Z,36.30
2019-03-31T11:08:05.757Z,36.13
2019-03-31T11:10:34.542Z,36.66
2019-03-31T11:13:03.116Z,36.99
2019-03-31T11:15:31.610Z,36.70
2019-03-31T11:17:59.997Z,34.55
2019-03-31T11:20:28.624Z,33.74
2019-03-31T11:22:58.681Z,33.71
2019-03-31T11:25:29.370Z,34.40
2019-03-31T11:27:57.518Z,34.81
2019-03-31T11:30:26.033Z,35.55
2019-03-31T11:32:54.616Z,35.02
2019-03-31T11:35:23.036Z,34.65
2019-03-31T11:37:51.518Z,33.47
2019-03-31T11:40:20.211Z,33.30
2019-03-31T11:42:48.772Z,31.56
2019-03-31T11:45:17.916Z,31.72
2019-03-31T11:47:46.425Z,30.79
2019-03-31T11:50:15.340Z,30.51
2019-03-31T11:52:43.745Z,30.47
2019-03-31T11:55:12.356Z,32.24
2019-03-31T11:57:40.835Z,31.61
2019-03-31T12:00:11.822Z,30.19
2019-03-31T12:02:40.401Z,29.55
2019-03-31T12:05:09.705Z,28.45
2019-03-31T12:07:46.717Z,28.01
2019-03-31T12:10:08.912Z,27.50
2019-03-31T12:12:37.326Z,27.87
2019-03-31T12:15:08.317Z,27.73
2019-03-31T12:17:36.805Z,29.59
2019-03-31T12:20:09.403Z,30.58
2019-03-31T12:22:37.840Z,29.75
2019-03-31T12:25:07.804Z,29.67
2019-03-31T12:27:36.238Z,28.58
2019-03-31T12:30:07.255Z,27.88
2019-03-31T12:32:38.326Z,27.69
2019-03-31T12:35:07.946Z,28.81
2019-03-31T12:37:42.865Z,29.20
2019-03-31T12:40:30.736Z,30.10
2019-03-31T12:42:59.298Z,31.07
2019-03-31T12:45:27.710Z,31.87
2019-03-31T12:47:57.129Z,32.48
2019-03-31T12:50:25.556Z,32.77
2019-03-31T12:52:53.998Z,32.74
2019-03-31T12:55:22.407Z,33.09
2019-03-31T12:57:51.967Z,33.29
2019-03-31T13:00:20.811Z,33.67
2019-03-31T13:02:49.367Z,31.55
2019-03-31T13:05:17.799Z,30.85
2019-03-31T13:07:56.113Z,30.53
2019-03-31T13:10:16.511Z,29.55
2019-03-31T13:12:45.012Z,29.59
2019-03-31T13:15:13.579Z,31.37
2019-03-31T13:17:41.990Z,32.36
2019-03-31T13:20:10.860Z,33.23
2019-03-31T13:22:39.363Z,33.73
2019-03-31T13:25:08.239Z,31.90
2019-03-31T13:27:55.979Z,30.80
2019-03-31T13:30:24.425Z,31.00
2019-03-31T13:32:52.878Z,31.68
2019-03-31T13:35:21.590Z,31.71
2019-03-31T13:37:49.997Z,31.48
2019-03-31T13:40:18.630Z,31.51
2019-03-31T13:42:47.102Z,31.64
2019-03-31T13:45:15.705Z,32.13
2019-03-31T13:47:44.216Z,32.51
2019-03-31T13:50:13.087Z,32.43
2019-03-31T13:52:41.665Z,32.33
2019-03-31T13:55:10.352Z,32.37
2019-03-31T13:57:40.113Z,32.41
2019-03-31T14:00:10.692Z,31.13
2019-03-31T14:02:39.946Z,29.84
2019-03-31T14:05:08.822Z,28.41
2019-03-31T14:07:37.447Z,27.96
2019-03-31T14:10:07.807Z,27.85
2019-03-31T14:12:36.290Z,28.47
2019-03-31T14:15:18.435Z,28.81
2019-03-31T14:17:38.008Z,29.07
2019-03-31T14:20:07.240Z,29.08
2019-03-31T14:22:36.075Z,28.55
2019-03-31T14:25:05.904Z,28.17
2019-03-31T14:27:34.339Z,27.80
2019-03-31T14:30:03.369Z,27.27
2019-03-31T14:32:31.808Z,27.10
2019-03-31T14:35:00.390Z,26.81
2019-03-31T14:37:28.805Z,26.59
2019-03-31T14:39:57.534Z,25.75
2019-03-31T14:42:26.122Z,25.82
2019-03-31T14:44:54.519Z,25.82
2019-03-31T14:47:23.067Z,25.83
2019-03-31T14:49:51.505Z,26.11
2019-03-31T14:52:27.342Z,26.45
2019-03-31T14:54:50.144Z,26.65
2019-03-31T14:57:18.812Z,26.93
2019-03-31T14:59:47.545Z,26.53
2019-03-31T15:02:16.422Z,26.41
2019-03-31T15:04:45.529Z,26.39
2019-03-31T15:07:14.044Z,26.44
2019-03-31T15:09:42.592Z,26.09
2019-03-31T15:12:11.244Z,25.91
2019-03-31T15:14:39.645Z,25.61
2019-03-31T15:17:08.063Z,25.16
2019-03-31T15:19:36.811Z,25.22
2019-03-31T15:22:05.532Z,25.30
2019-03-31T15:24:34.391Z,25.24
2019-03-31T15:27:03.810Z,25.59
2019-03-31T15:29:32.229Z,25.70
2019-03-31T15:32:00.729Z,25.62
2019-03-31T15:34:29.215Z,25.29
2019-03-31T15:36:57.615Z,25.25
2019-03-31T15:39:26.129Z,25.47
2019-03-31T15:41:54.548Z,25.38
2019-03-31T15:44:23.008Z,24.92
2019-03-31T15:46:51.493Z,25.04
2019-03-31T15:49:19.916Z,25.10
2019-03-31T15:51:49.581Z,25.12
2019-03-31T15:54:18.041Z,25.11
2019-03-31T15:56:46.824Z,24.83
2019-03-31T15:59:15.233Z,24.42
2019-03-31T16:01:43.735Z,24.14
2019-03-31T16:04:12.287Z,23.78
2019-03-31T16:06:40.792Z,23.61
2019-03-31T16:09:22.692Z,23.49
2019-03-31T16:11:52.889Z,23.38
2019-03-31T16:14:09.854Z,23.14
2019-03-31T16:16:38.451Z,23.04
2019-03-31T16:19:06.859Z,22.73
2019-03-31T16:21:35.416Z,22.47
2019-03-31T16:24:04.163Z,22.30
2019-03-31T16:26:32.642Z,22.11
2019-03-31T16:29:01.149Z,21.83
2019-03-31T16:31:29.595Z,21.81
2019-03-31T16:33:58.253Z,21.73
2019-03-31T16:36:26.966Z,21.63
2019-03-31T16:38:55.353Z,21.60
2019-03-31T16:41:23.743Z,21.55
2019-03-31T16:43:52.219Z,21.37
2019-03-31T16:46:20.842Z,21.11
2019-03-31T16:48:49.376Z,21.02
2019-03-31T16:51:17.861Z,20.95
2019-03-31T16:53:46.398Z,20.86
2019-03-31T16:56:14.837Z,20.70
2019-03-31T16:58:43.260Z,20.51
2019-03-31T17:01:12.073Z,20.38
2019-03-31T17:03:40.770Z,20.32
2019-03-31T17:06:09.242Z,20.13
2019-03-31T17:08:37.746Z,19.89
2019-03-31T17:11:06.452Z,19.70
2019-03-31T17:13:34.991Z,19.61
2019-03-31T17:16:03.484Z,19.48
2019-03-31T17:18:32.061Z,19.35
2019-03-31T17:21:00.607Z,19.24
2019-03-31T17:23:29.206Z,19.18
2019-03-31T17:25:57.738Z,18.97
2019-03-31T17:28:26.271Z,18.96
2019-03-31T17:30:54.706Z,18.89
2019-03-31T17:33:23.589Z,18.77
2019-03-31T17:35:52.133Z,18.66
2019-03-31T17:38:20.695Z,18.49
2019-03-31T17:40:49.262Z,18.35
2019-03-31T17:43:17.816Z,18.27
2019-03-31T17:45:46.583Z,18.11
2019-03-31T17:48:14.976Z,17.82
2019-03-31T17:50:43.519Z,17.73
2019-03-31T17:53:11.899Z,17.52
2019-03-31T17:55:40.628Z,17.45
2019-03-31T17:58:09.033Z,17.32
2019-03-31T18:00:37.449Z,17.21
2019-03-31T18:03:05.845Z,17.07
2019-03-31T18:05:34.312Z,16.86
2019-03-31T18:08:02.879Z,16.40
2019-03-31T18:10:31.309Z,16.60
2019-03-31T18:12:59.797Z,16.47
2019-03-31T18:15:28.384Z,16.34
2019-03-31T18:17:56.905Z,16.19
2019-03-31T18:20:25.422Z,16.07
2019-03-31T18:22:53.838Z,15.93
2019-03-31T18:25:22.335Z,15.80
2019-03-31T18:27:50.737Z,15.61
2019-03-31T18:30:19.521Z,15.51
2019-03-31T18:32:48.009Z,15.37
2019-03-31T18:35:16.973Z,15.29
2019-03-31T18:37:45.628Z,15.23
2019-03-31T18:40:14.119Z,15.18
2019-03-31T18:42:42.749Z,15.13
2019-03-31T18:45:11.401Z,15.10
2019-03-31T18:47:39.899Z,15.07
2019-03-31T18:50:08.673Z,14.99
2019-03-31T18:52:37.138Z,14.97
2019-03-31T18:55:13.785Z,14.94
2019-03-31T18:57:43.846Z,14.90
2019-03-31T19:00:17.277Z,14.89
2019-03-31T19:03:03.890Z,14.87
2019-03-31T19:05:50.470Z,14.80
2019-03-31T19:08:23.331Z,14.65
2019-03-31T19:11:02.924Z,14.52
2019-03-31T19:16:35.957Z,14.50
2019-03-31T19:19:12.085Z,14.42
2019-03-31T19:21:59.437Z,14.33
2019-03-31T19:25:04.488Z,14.30
2019-03-31T19:27:34.652Z,14.23
2019-03-31T19:30:05.181Z,14.25
2019-03-31T19:32:38.340Z,14.18
2019-03-31T19:35:12.156Z,14.01
2019-03-31T19:37:42.280Z,13.96
2019-03-31T19:40:20.875Z,13.95
2019-03-31T19:43:02.939Z,13.98
2019-03-31T19:45:49.974Z,13.98
2019-03-31T19:48:36.029Z,14.00
2019-03-31T19:51:06.341Z,13.97
2019-03-31T19:53:48.439Z,13.92
2019-03-31T19:56:18.556Z,13.88
2019-03-31T19:58:51.783Z,13.89
2019-03-31T20:03:50.453Z,13.84
2019-03-31T20:06:32.937Z,13.75
2019-03-31T20:09:08.995Z,13.75
2019-03-31T20:11:39.111Z,13.69
2019-03-31T20:14:12.163Z,13.62
2019-03-31T20:16:48.442Z,13.55
2019-03-31T20:19:36.660Z,13.59
2019-03-31T20:22:18.978Z,13.49
2019-03-31T20:24:54.853Z,13.47
2019-03-31T20:27:27.385Z,13.48
2019-03-31T20:30:03.523Z,13.50
2019-03-31T20:32:36.433Z,13.45
2019-03-31T20:35:11.086Z,13.37
2019-03-31T20:37:47.247Z,13.30
2019-03-31T20:40:29.025Z,13.26
2019-03-31T20:43:04.851Z,13.32
2019-03-31T20:45:33.361Z,13.25
2019-03-31T20:48:01.853Z,13.26
2019-03-31T20:50:30.329Z,13.17
2019-03-31T20:52:58.739Z,13.15
2019-03-31T20:55:27.274Z,13.11
2019-03-31T20:57:55.776Z,13.04
2019-03-31T21:00:24.319Z,13.07
2019-03-31T21:02:52.747Z,12.96
2019-03-31T21:05:21.249Z,12.95
2019-03-31T21:07:49.690Z,12.93
2019-03-31T21:10:18.113Z,12.87
2019-03-31T21:12:46.565Z,12.82
2019-03-31T21:15:15.184Z,12.78
2019-03-31T21:17:43.638Z,12.70
2019-03-31T21:20:12.121Z,12.68
2019-03-31T21:22:40.616Z,12.62
2019-03-31T21:25:09.279Z,12.58
2019-03-31T21:27:37.708Z,12.50
2019-03-31T21:30:07.567Z,12.50
2019-03-31T21:32:36.076Z,12.40
2019-03-31T21:35:06.134Z,12.37
2019-03-31T21:37:34.572Z,12.32
2019-03-31T21:40:03.173Z,12.24
2019-03-31T21:42:31.710Z,12.21
2019-03-31T21:45:00.167Z,12.11
2019-03-31T21:47:28.611Z,12.12
2019-03-31T21:49:57.029Z,12.05
2019-03-31T21:52:25.418Z,11.98
2019-03-31T21:54:54.400Z,11.91
2019-03-31T21:57:22.827Z,11.88
2019-03-31T21:59:51.240Z,11.81
2019-03-31T22:02:20.094Z,11.80
2019-03-31T22:04:48.538Z,11.69
2019-03-31T22:07:16.946Z,11.67
2019-03-31T22:09:45.412Z,11.60
2019-03-31T22:12:13.876Z,11.57
2019-03-31T22:14:42.334Z,11.47
2019-03-31T22:17:10.749Z,11.47
2019-03-31T22:19:39.173Z,11.36
2019-03-31T22:22:07.616Z,11.36
2019-03-31T22:24:36.035Z,11.35
2019-03-31T22:27:04.544Z,11.19
2019-03-31T22:29:33.172Z,11.19
2019-03-31T22:32:01.583Z,11.19
2019-03-31T22:34:30.095Z,11.11
2019-03-31T22:36:58.533Z,11.11
2019-03-31T22:39:27.054Z,10.97
2019-03-31T22:41:55.468Z,10.97
2019-03-31T22:44:23.897Z,10.75
2019-03-31T22:46:54.524Z,10.75
2019-03-31T22:49:23.052Z,10.83
2019-03-31T22:51:51.460Z,10.71
2019-03-31T22:54:19.885Z,10.65
2019-03-31T22:56:48.740Z,10.59
2019-03-31T22:59:17.278Z,10.60
2019-03-31T23:01:45.748Z,10.55
2019-03-31T23:04:14.217Z,10.49
2019-03-31T23:06:42.632Z,10.42
2019-03-31T23:09:11.032Z,10.36
2019-03-31T23:11:39.466Z,10.30
2019-03-31T23:14:07.944Z,10.29
2019-03-31T23:16:36.345Z,10.19
2019-03-31T23:19:04.814Z,10.16
2019-03-31T23:21:33.494Z,10.11
2019-03-31T23:24:02.051Z,10.08
2019-03-31T23:26:30.577Z,10.02
2019-03-31T23:28:59.015Z,9.97
2019-03-31T23:31:27.449Z,9.93
2019-03-31T23:33:55.919Z,9.92
2019-03-31T23:36:24.440Z,9.86
2019-03-31T23:38:52.891Z,9.46
2019-03-31T23:41:21.313Z,9.81
2019-03-31T23:43:49.719Z,9.72
2019-03-31T23:46:18.140Z,9.66
2019-03-31T23:48:46.783Z,9.60
2019-03-31T23:51:15.388Z,9.58
2019-03-31T23:53:43.791Z,9.57
2019-03-31T23:56:12.213Z,9.53
2019-03-31T23:58:40.762Z,9.47
